Aeroporto :
LOGIN :

Iscrizione | Disclaimer

   EN    FR    IT 

 










Sommario :    VFR   VFR Marginale   IFR   IFR Intensivo   IFR Molto Intensivo
Visibilità : 
Base nubi : 
>= 8 km
>= 3000ft
5 / 8 km
1000 / 3000 ft
1500m / 5 km
500 / 1000 ft
800 / 1500m
200 / 500 ft
< 800m
< 200 ft
Simboli :   Temporali  Nebbia  Neve Forte  Precipitazioni Forti  Vento > 20 kt
SIGMETs :   Varie  Temporali  Ghiacco  Turbolenza  Onda orograficha  Ceneri Vulcaniche






- Altitudine del aeroporto : 659 ft
- Codice IATA : LGG


EBLG - Liège

ULTIMO METAR :
  • 270050Z 19015KT 9999 SCT020 BKN047 07/04 Q1012 TEMPO 4500 RA BKN014

METARs OBSOLETI :
  • 270020Z 19015KT 9999 FEW020 SCT041 07/04 Q1012 TEMPO 4500 RA BKN014
  • 262350Z 19012KT CAVOK 07/04 Q1012 TEMPO 4500 RA BKN014
  • 262320Z 18013KT CAVOK 07/04 Q1012 NOSIG
  • 262250Z 20014KT CAVOK 07/04 Q1013 NOSIG
  • 262220Z 20013KT CAVOK 07/04 Q1013 NOSIG

TAF TAF EBLG
Valido dal 27 a 00 ore il 28 a 06 ore UTC


262310Z 2700/2806 20012KT 9999 BKN017
TEMPO 2703/2712 19015G25KT RA SCT006 BKN009
TEMPO 2720/2724 4500 RA SCT009 BKN014
BECMG 2722/2724 22015G25KT



MetMap, La meteo Aeronautica in un colpo d'occhio ! - Copyright ORBIFLY Dicembre 2007 - Disclaimer

ORBIFLY MET'MAP TEAM :

Programmazione e sviluppo : Alexandra Zaïnal
Concezione : Baudouin d'Aumeries
Aiuto per la programmazione : Marc-Olivier Méhu
Supporto tecnico e logistico : Manuel Goepfert
Aiuto per la traduzione : Arnaldo La Scala

Contatto : metmap@orbifly.com




FONTI E CREDITI :

   NOAA